Time;durP1;ratioP1;P1;durP2;ratioP2;P2;SDS_P1;SDS_P2;PMS_P1;PMS_P2;Temp;Humidity;BMP_temperature;BMP_pressure;BME280_temperature;BME280_humidity;BME280_pressure;Samples;Min_cycle;Max_cycle;Signal;HPM_P1;HPM_P2
2022/11/14 00:00:37;;;;;;;24.27;12.80;;;;;;;4.96;82.47;98237.81;4969274;28;20061;-83
2022/11/14 00:03:06;;;;;;;19.17;11.60;;;;;;;4.90;80.37;98233.25;4967273;28;20054;-83
2022/11/14 00:05:36;;;;;;;19.63;11.35;;;;;;;4.81;82.21;98229.03;4970202;28;20069;-83
2022/11/14 00:08:02;;;;;;;24.40;12.95;;;;;;;4.71;84.36;98230.97;4969734;28;20738;-83
2022/11/14 00:10:27;;;;;;;20.88;12.85;;;;;;;4.69;84.83;98225.13;4969867;28;20039;-83
2022/11/14 00:12:53;;;;;;;24.52;12.50;;;;;;;4.67;85.08;98232.25;4970101;28;20522;-83
2022/11/14 00:15:19;;;;;;;18.35;10.77;;;;;;;4.72;85.12;98219.59;4970083;28;20391;-83
2022/11/14 00:17:44;;;;;;;21.00;11.18;;;;;;;4.71;84.89;98221.38;4970106;28;20042;-83
2022/11/14 00:20:11;;;;;;;20.83;11.90;;;;;;;4.76;84.78;98221.72;4969337;28;20023;-83
2022/11/14 00:22:37;;;;;;;21.65;12.02;;;;;;;4.82;84.00;98220.28;4969441;28;20499;-83
2022/11/14 00:25:03;;;;;;;15.90;9.98;;;;;;;4.77;79.92;98223.34;4970121;28;20038;-83
2022/11/14 00:27:29;;;;;;;19.35;11.10;;;;;;;4.81;79.56;98224.66;4969953;28;20031;-83
2022/11/14 00:29:54;;;;;;;20.45;11.98;;;;;;;4.75;82.48;98224.47;4969761;28;20058;-83
2022/11/14 00:32:21;;;;;;;23.73;13.50;;;;;;;4.72;84.03;98222.19;4969561;28;20047;-83
2022/11/14 00:34:47;;;;;;;23.80;13.13;;;;;;;4.79;85.58;98212.78;4969923;28;20050;-83
2022/11/14 00:37:14;;;;;;;22.67;12.70;;;;;;;4.81;86.09;98210.84;4970155;28;20070;-83
2022/11/14 00:39:39;;;;;;;27.50;14.57;;;;;;;4.86;85.56;98211.19;4969469;28;20066;-83
2022/11/14 00:42:05;;;;;;;23.20;12.98;;;;;;;4.94;85.34;98208.59;4969696;28;20038;-83
2022/11/14 00:44:32;;;;;;;23.95;13.18;;;;;;;5.00;84.93;98209.72;4969485;28;20101;-83
2022/11/14 00:46:57;;;;;;;24.65;13.50;;;;;;;4.97;85.34;98204.84;4969276;28;20471;-83
2022/11/14 00:49:23;;;;;;;24.88;13.38;;;;;;;4.94;85.27;98192.19;4972876;28;20064;-83
2022/11/14 00:51:48;;;;;;;28.77;13.95;;;;;;;4.97;84.79;98203.06;4973612;28;20423;-83
2022/11/14 00:54:14;;;;;;;24.05;13.88;;;;;;;5.03;85.30;98201.59;4973031;28;20117;-83
2022/11/14 00:56:39;;;;;;;22.58;12.00;;;;;;;5.03;84.86;98192.00;4973985;28;20054;-83
2022/11/14 00:59:05;;;;;;;23.67;13.48;;;;;;;4.99;84.95;98193.31;4973468;28;20109;-83
2022/11/14 01:01:30;;;;;;;25.55;14.15;;;;;;;5.00;84.82;98197.53;4976626;28;20898;-83
2022/11/14 01:03:58;;;;;;;25.10;14.40;;;;;;;5.07;84.90;98193.31;4973102;28;20070;-83
2022/11/14 01:06:23;;;;;;;23.15;13.50;;;;;;;5.13;84.64;98198.84;4972882;28;20077;-83
2022/11/14 01:08:50;;;;;;;21.50;12.57;;;;;;;5.13;84.33;98191.88;4972943;28;20042;-83
2022/11/14 01:11:20;;;;;;;20.50;10.85;;;;;;;5.14;82.67;98200.47;4973147;28;20106;-83
2022/11/14 01:13:47;;;;;;;17.63;11.68;;;;;;;5.07;81.65;98182.91;4973040;28;20501;-83
2022/11/14 01:16:12;;;;;;;21.85;11.20;;;;;;;5.07;80.97;98189.91;4972704;28;20502;-83
2022/11/14 01:18:39;;;;;;;16.85;10.98;;;;;;;4.99;79.80;98189.91;4972204;28;20034;-83
2022/11/14 01:21:08;;;;;;;21.35;10.30;;;;;;;4.75;78.52;98182.91;4972721;28;20154;-83
2022/11/14 01:23:34;;;;;;;24.65;13.38;;;;;;;4.67;83.57;98175.09;4971812;28;20031;-83
2022/11/14 01:26:10;;;;;;;24.65;14.05;;;;;;;4.72;85.17;98178.03;4973225;28;20093;-83
2022/11/14 01:28:36;;;;;;;23.33;13.32;;;;;;;4.76;85.46;98181.94;4973018;28;20038;-83
2022/11/14 01:31:20;;;;;;;26.20;14.80;;;;;;;4.75;85.53;98175.91;4972270;28;20052;-83
2022/11/14 01:33:49;;;;;;;27.23;15.02;;;;;;;4.83;85.82;98177.72;4972670;28;20031;-84
2022/11/14 01:36:15;;;;;;;28.33;15.25;;;;;;;4.91;85.73;98172.50;4972853;28;20039;-83
2022/11/14 01:38:41;;;;;;;28.73;14.38;;;;;;;4.94;85.18;98168.78;4972954;28;20039;-83
2022/11/14 01:41:06;;;;;;;25.92;14.45;;;;;;;4.92;85.10;98162.91;4972655;28;20038;-84
2022/11/14 01:43:38;;;;;;;24.77;13.88;;;;;;;4.93;85.15;98159.38;4972828;28;20039;-84
2022/11/14 01:46:36;;;;;;;29.88;15.15;;;;;;;4.98;85.48;98162.31;4973377;28;20042;-83
2022/11/14 01:49:21;;;;;;;26.20;13.98;;;;;;;5.04;85.17;98152.06;4970072;28;20142;-84
2022/11/14 01:52:01;;;;;;;24.15;14.30;;;;;;;5.05;85.28;98148.50;4972832;28;20054;-84
2022/11/14 01:54:37;;;;;;;28.08;14.68;;;;;;;5.09;84.54;98157.56;4972862;28;20058;-84
2022/11/14 01:57:06;;;;;;;27.38;14.95;;;;;;;5.12;84.66;98147.84;4972771;28;20043;-84
2022/11/14 01:59:43;;;;;;;27.27;14.07;;;;;;;5.09;84.61;98148.94;4971119;28;20118;-84
2022/11/14 02:02:19;;;;;;;24.85;13.82;;;;;;;5.07;85.01;98146.53;4969401;28;20428;-83
2022/11/14 02:04:59;;;;;;;25.50;13.45;;;;;;;5.05;84.73;98147.69;4973350;28;20039;-84
2022/11/14 02:07:31;;;;;;;28.05;14.77;;;;;;;5.03;85.07;98141.81;4971975;28;20372;-83
2022/11/14 02:10:02;;;;;;;26.85;14.77;;;;;;;5.08;84.88;98142.94;4970167;28;20031;-84
2022/11/14 02:12:28;;;;;;;27.95;15.73;;;;;;;5.13;85.41;98146.84;4972348;28;20051;-83
2022/11/14 02:14:58;;;;;;;21.80;12.50;;;;;;;5.14;83.86;98148.47;4971448;28;20621;-83
2022/11/14 02:17:24;;;;;;;20.13;12.68;;;;;;;5.15;83.11;98139.69;4971210;28;20082;-83
2022/11/14 02:19:53;;;;;;;27.25;15.50;;;;;;;5.15;84.01;98139.69;4971585;28;20042;-83
2022/11/14 02:22:19;;;;;;;29.30;15.85;;;;;;;5.07;84.13;98154.31;4971753;28;20081;-83
2022/11/14 02:24:45;;;;;;;28.00;15.18;;;;;;;5.05;84.78;98145.06;4968274;28;20031;-84
2022/11/14 02:27:13;;;;;;;20.55;11.63;;;;;;;4.95;81.68;98139.22;4972021;28;20446;-83
2022/11/14 02:29:38;;;;;;;19.00;11.25;;;;;;;4.90;80.54;98144.91;4970400;28;20074;-83
2022/11/14 02:32:04;;;;;;;22.52;13.77;;;;;;;4.85;82.40;98136.78;4971981;28;20602;-83
2022/11/14 02:34:30;;;;;;;28.20;14.57;;;;;;;4.79;83.24;98133.03;4971711;28;20066;-83
2022/11/14 02:36:56;;;;;;;24.95;14.52;;;;;;;4.67;84.01;98142.13;4971492;28;20061;-83
2022/11/14 02:39:23;;;;;;;28.48;16.00;;;;;;;4.62;85.49;98135.78;4972656;28;20034;-83
2022/11/14 02:41:52;;;;;;;27.52;15.85;;;;;;;4.58;85.76;98130.09;4973019;28;20109;-84
2022/11/14 02:44:18;;;;;;;24.65;14.90;;;;;;;4.61;85.82;98124.56;4971740;28;20094;-84
2022/11/14 02:46:44;;;;;;;27.83;16.08;;;;;;;4.61;86.46;98115.97;4971557;28;20047;-84
2022/11/14 02:49:09;;;;;;;23.85;14.30;;;;;;;4.61;86.36;98105.59;4971482;28;20034;-83
2022/11/14 02:51:35;;;;;;;27.80;15.60;;;;;;;4.64;86.83;98107.88;4971899;28;20039;-83
2022/11/14 02:54:00;;;;;;;26.35;14.25;;;;;;;4.59;86.85;98110.13;4970925;28;20041;-84
2022/11/14 02:56:26;;;;;;;23.85;13.45;;;;;;;4.64;86.00;98110.47;4971162;28;20039;-83
2022/11/14 02:58:52;;;;;;;25.52;12.98;;;;;;;4.59;85.18;98105.75;4969551;28;20118;-83
2022/11/14 03:01:18;;;;;;;21.30;12.13;;;;;;;4.59;83.39;98104.94;4967784;28;20066;-83
2022/11/14 03:03:43;;;;;;;20.27;11.85;;;;;;;4.59;82.73;98116.13;4967039;28;20463;-83
2022/11/14 03:06:09;;;;;;;20.33;11.70;;;;;;;4.45;81.52;98104.59;4969723;28;20038;-83
2022/11/14 03:08:34;;;;;;;19.92;11.82;;;;;;;4.45;81.31;98121.97;4970957;28;20128;-83
2022/11/14 03:11:08;;;;;;;21.83;11.60;;;;;;;4.30;80.62;98119.19;4970223;28;20446;-83
2022/11/14 03:13:34;;;;;;;20.60;11.88;;;;;;;4.24;80.88;98125.00;4970516;28;20046;-83
2022/11/14 03:16:13;;;;;;;19.17;11.85;;;;;;;4.17;80.32;98121.41;4971187;28;20114;-83
2022/11/14 03:18:38;;;;;;;18.77;11.75;;;;;;;4.09;80.05;98131.78;4970285;28;20038;-83
2022/11/14 03:21:16;;;;;;;20.23;11.70;;;;;;;3.96;79.55;98124.44;4970568;28;20039;-84
2022/11/14 03:23:43;;;;;;;21.10;11.93;;;;;;;3.93;81.21;98128.16;4970834;28;20038;-84
2022/11/14 03:26:11;;;;;;;21.55;12.15;;;;;;;3.90;81.73;98123.28;4968598;28;20042;-83
2022/11/14 03:28:37;;;;;;;21.38;12.05;;;;;;;3.91;82.18;98116.31;4970688;28;20470;-83
2022/11/14 03:31:04;;;;;;;20.00;12.27;;;;;;;3.82;83.15;98099.09;4969880;28;20054;-83
2022/11/14 03:33:30;;;;;;;22.52;11.35;;;;;;;3.88;83.84;98107.06;4970569;28;20038;-84
2022/11/14 03:35:56;;;;;;;22.90;12.27;;;;;;;3.83;83.92;98103.28;4970789;28;20038;-83
2022/11/14 03:38:22;;;;;;;24.55;12.18;;;;;;;3.75;82.41;98107.50;4970017;28;20048;-84
2022/11/14 03:40:51;;;;;;;23.13;11.98;;;;;;;3.72;82.47;98102.63;4970623;28;20031;-83
2022/11/14 03:43:19;;;;;;;21.80;11.70;;;;;;;3.66;82.64;98084.28;4970565;28;20395;-84
2022/11/14 03:45:46;;;;;;;23.50;12.50;;;;;;;3.72;85.44;98091.44;4984886;28;20039;-84
2022/11/14 03:48:12;;;;;;;24.40;13.48;;;;;;;3.69;86.29;98087.34;4970863;28;20042;-83
2022/11/14 03:50:39;;;;;;;23.20;12.48;;;;;;;3.77;87.06;98089.16;4966901;28;20031;-83
2022/11/14 03:53:05;;;;;;;24.10;13.18;;;;;;;3.82;88.11;98094.69;4970541;28;20070;-83
2022/11/14 03:55:30;;;;;;;19.13;10.90;;;;;;;3.76;84.27;98098.72;4977190;28;20101;-84
2022/11/14 03:57:56;;;;;;;21.05;10.50;;;;;;;3.64;80.69;98104.34;4969108;28;20475;-83
2022/11/14 04:00:21;;;;;;;18.88;11.13;;;;;;;3.54;80.14;98109.69;4970283;28;20066;-83
2022/11/14 04:02:47;;;;;;;18.73;11.52;;;;;;;3.48;81.02;98105.91;4983801;28;20097;-83
2022/11/14 04:05:13;;;;;;;21.55;12.20;;;;;;;3.35;83.02;98115.88;4970378;28;20034;-84
2022/11/14 04:07:39;;;;;;;23.05;12.13;;;;;;;3.34;84.02;98119.44;4970678;28;20092;-83
2022/11/14 04:10:06;;;;;;;20.98;11.77;;;;;;;3.39;84.12;98106.81;4970008;28;20043;-84
2022/11/14 04:12:31;;;;;;;17.55;11.07;;;;;;;3.49;84.15;98111.91;4970025;28;20035;-83
2022/11/14 04:14:57;;;;;;;21.20;11.75;;;;;;;3.54;84.33;98099.31;4969358;28;20041;-84
2022/11/14 04:17:23;;;;;;;19.50;12.68;;;;;;;3.48;85.75;98082.59;4969657;28;20045;-84
2022/11/14 04:19:49;;;;;;;25.98;12.65;;;;;;;3.54;86.10;98085.50;4969574;28;20858;-84
2022/11/14 04:22:14;;;;;;;22.73;13.65;;;;;;;3.54;86.99;98088.09;4970731;28;20495;-83
2022/11/14 04:24:40;;;;;;;20.85;11.85;;;;;;;3.53;85.89;98089.88;4974692;28;20105;-83
2022/11/14 04:27:05;;;;;;;19.05;12.25;;;;;;;3.36;83.15;98088.16;4974081;28;20483;-83
2022/11/14 04:29:31;;;;;;;19.92;12.73;;;;;;;3.20;83.10;98107.84;4973779;28;20440;-83
2022/11/14 04:31:56;;;;;;;20.48;11.80;;;;;;;3.24;83.66;98110.97;4967485;28;20050;-83
2022/11/14 04:34:22;;;;;;;22.40;12.25;;;;;;;3.26;83.75;98106.44;4973549;28;20118;-83
2022/11/14 04:36:50;;;;;;;20.42;11.18;;;;;;;3.27;83.92;98102.88;4971401;28;20126;-83
2022/11/14 04:39:17;;;;;;;20.17;12.43;;;;;;;3.31;83.83;98096.44;4973103;28;20120;-83
2022/11/14 04:41:43;;;;;;;23.20;12.32;;;;;;;3.27;84.34;98084.72;4973795;28;20034;-85
2022/11/14 04:44:08;;;;;;;20.40;12.05;;;;;;;3.38;84.74;98079.28;4972719;28;20044;-84
2022/11/14 04:46:33;;;;;;;20.95;12.80;;;;;;;3.43;85.72;98082.22;4972086;28;20454;-83
2022/11/14 04:48:59;;;;;;;25.92;13.60;;;;;;;3.51;86.39;98083.22;4973192;28;20038;-83
2022/11/14 04:51:24;;;;;;;21.75;12.38;;;;;;;3.54;86.20;98093.28;4973433;28;20042;-83
2022/11/14 04:53:50;;;;;;;22.55;12.63;;;;;;;3.62;86.07;98098.53;4973370;28;20042;-83
2022/11/14 04:56:16;;;;;;;23.42;12.30;;;;;;;3.68;86.04;98103.91;4973563;28;20048;-83
2022/11/14 04:58:41;;;;;;;19.95;12.60;;;;;;;3.70;85.29;98098.53;4973509;28;20094;-83
2022/11/14 05:01:12;;;;;;;23.50;12.90;;;;;;;3.73;85.37;98098.25;4973644;28;20526;-83
2022/11/14 05:03:38;;;;;;;;;;;;;;;3.71;85.31;98097.56;4971196;28;20035;-83
2022/11/14 05:06:04;;;;;;;26.10;13.25;;;;;;;3.70;86.00;98093.34;4973572;28;19914;-83
2022/11/14 05:08:29;;;;;;;24.08;12.18;;;;;;;3.72;85.81;98102.63;4969172;28;20038;-83
2022/11/14 05:10:54;;;;;;;22.73;13.48;;;;;;;3.71;85.76;98094.97;4973151;28;20615;-83
2022/11/14 05:13:20;;;;;;;24.30;13.55;;;;;;;3.73;85.29;98093.06;4973125;28;20049;-83
2022/11/14 05:15:46;;;;;;;24.85;13.88;;;;;;;3.69;85.41;98097.75;4972815;28;20030;-83
2022/11/14 05:18:12;;;;;;;22.42;12.55;;;;;;;3.59;85.12;98091.84;4973500;28;20037;-83
2022/11/14 05:20:37;;;;;;;22.02;12.35;;;;;;;3.55;85.94;98100.13;4987570;28;20027;-83
2022/11/14 05:23:03;;;;;;;23.45;12.73;;;;;;;3.54;86.31;98098.47;4972876;28;20062;-83
2022/11/14 05:25:29;;;;;;;21.15;12.18;;;;;;;3.60;86.58;98098.69;4971294;28;20053;-83
2022/11/14 05:27:54;;;;;;;19.85;12.00;;;;;;;3.55;86.14;98100.13;4972685;28;20039;-83
2022/11/14 05:30:20;;;;;;;21.75;11.68;;;;;;;3.45;86.63;98108.81;4972090;28;20043;-84
2022/11/14 05:32:46;;;;;;;20.75;10.45;;;;;;;3.40;86.93;98118.00;4972150;28;20043;-83
2022/11/14 05:35:11;;;;;;;18.13;11.43;;;;;;;3.40;87.84;98118.00;4973197;28;20035;-83
2022/11/14 05:37:37;;;;;;;20.02;11.30;;;;;;;3.34;88.56;98114.25;4972644;28;20049;-84
2022/11/14 05:40:04;;;;;;;19.77;11.23;;;;;;;3.39;89.19;98111.19;4971911;28;20042;-84
2022/11/14 05:42:30;;;;;;;18.20;10.77;;;;;;;3.40;89.36;98108.44;4971006;28;20038;-84
2022/11/14 05:44:56;;;;;;;16.85;9.05;;;;;;;3.36;89.90;98117.53;4972512;28;20052;-84
2022/11/14 05:47:22;;;;;;;19.10;10.50;;;;;;;3.36;90.19;98112.34;4972293;28;20035;-83
2022/11/14 05:49:47;;;;;;;19.85;11.60;;;;;;;3.43;90.66;98110.75;4971746;28;20038;-84
2022/11/14 05:52:13;;;;;;;18.33;10.68;;;;;;;3.44;90.60;98108.97;4972054;28;20046;-84
2022/11/14 05:54:38;;;;;;;20.25;11.10;;;;;;;3.48;90.40;98115.47;4987364;28;20034;-83
2022/11/14 05:57:04;;;;;;;19.55;10.48;;;;;;;3.51;90.44;98135.09;4976320;28;20034;-83
2022/11/14 05:59:30;;;;;;;19.13;10.32;;;;;;;3.51;90.53;98137.69;4972039;28;20113;-84
2022/11/14 06:01:56;;;;;;;18.60;11.20;;;;;;;3.49;90.48;98145.63;4968710;28;20542;-83
2022/11/14 06:04:22;;;;;;;20.33;11.40;;;;;;;3.50;90.35;98149.84;4971852;28;20054;-84
2022/11/14 06:06:47;;;;;;;20.98;11.82;;;;;;;3.40;89.76;98147.34;4972225;28;20053;-83
2022/11/14 06:09:13;;;;;;;18.92;11.05;;;;;;;3.42;89.79;98153.22;4971403;28;20054;-84
2022/11/14 06:11:38;;;;;;;17.98;10.20;;;;;;;3.43;89.62;98162.59;4971812;28;20106;-84
2022/11/14 06:14:04;;;;;;;18.42;11.60;;;;;;;3.45;89.48;98154.66;4972089;28;20087;-84
2022/11/14 06:16:29;;;;;;;20.58;11.23;;;;;;;3.40;89.22;98146.53;4971755;28;20387;-83
2022/11/14 06:18:56;;;;;;;17.45;10.93;;;;;;;3.45;89.18;98142.50;4971367;28;20417;-83
2022/11/14 06:21:24;;;;;;;20.45;11.55;;;;;;;3.45;89.21;98129.56;4971009;28;20041;-83
2022/11/14 06:23:50;;;;;;;19.98;10.95;;;;;;;3.44;88.78;98140.91;4971565;28;20039;-83
2022/11/14 06:26:24;;;;;;;15.98;10.20;;;;;;;3.52;89.09;98152.28;4971286;28;20046;-84
2022/11/14 06:28:52;;;;;;;18.65;10.80;;;;;;;3.56;88.70;98151.81;4970323;28;20097;-84
2022/11/14 06:31:19;;;;;;;20.40;11.38;;;;;;;3.61;88.51;98157.38;4969721;28;20066;-84
2022/11/14 06:33:45;;;;;;;17.50;10.77;;;;;;;3.54;87.95;98161.53;4970789;28;20031;-84
2022/11/14 06:36:12;;;;;;;17.60;10.35;;;;;;;3.49;88.49;98174.97;4971813;28;20042;-84
2022/11/14 06:38:40;;;;;;;18.42;10.38;;;;;;;3.55;88.52;98177.91;4970187;28;20568;-84
2022/11/14 06:41:11;;;;;;;20.23;11.38;;;;;;;3.67;88.59;98166.31;4970540;28;20513;-84
2022/11/14 06:43:43;;;;;;;17.98;11.02;;;;;;;3.71;87.91;98168.41;4968933;28;20057;-84
2022/11/14 06:46:14;;;;;;;19.70;11.70;;;;;;;3.76;88.17;98173.16;4970086;28;20089;-84
2022/11/14 06:48:40;;;;;;;20.65;11.75;;;;;;;3.85;87.57;98172.25;4969008;28;20041;-84
2022/11/14 06:51:06;;;;;;;19.27;11.15;;;;;;;3.90;86.90;98175.19;4968765;28;20039;-84
2022/11/14 06:53:35;;;;;;;20.38;10.90;;;;;;;3.87;86.63;98167.69;4970405;28;20050;-84
2022/11/14 06:56:07;;;;;;;19.33;11.07;;;;;;;3.84;86.36;98165.44;4970062;28;20031;-84
2022/11/14 06:58:37;;;;;;;19.50;11.05;;;;;;;3.83;86.85;98173.34;4963860;28;20039;-84
2022/11/14 07:01:15;;;;;;;20.15;11.68;;;;;;;3.88;86.82;98164.13;4969623;28;20034;-84
2022/11/14 07:03:42;;;;;;;18.13;10.48;;;;;;;3.92;86.29;98172.44;4981874;28;20125;-84
2022/11/14 07:06:11;;;;;;;21.33;11.52;;;;;;;4.00;86.38;98168.06;4970285;28;20031;-84
2022/11/14 07:08:37;;;;;;;18.92;11.57;;;;;;;4.10;86.28;98165.38;4969702;28;20066;-83
2022/11/14 07:11:10;;;;;;;18.70;10.48;;;;;;;4.12;85.42;98152.22;4971538;28;20035;-83
2022/11/14 07:13:37;;;;;;;16.77;10.65;;;;;;;4.13;85.40;98153.84;4985971;28;20069;-83
2022/11/14 07:16:03;;;;;;;22.80;12.57;;;;;;;4.21;85.47;98146.09;4971323;28;20054;-83
2022/11/14 07:18:31;;;;;;;26.48;13.48;;;;;;;4.20;85.26;98163.47;4970946;28;20093;-83
2022/11/14 07:20:59;;;;;;;25.42;14.68;;;;;;;4.25;85.26;98161.19;4971048;28;20034;-84
2022/11/14 07:23:26;;;;;;;18.27;10.85;;;;;;;4.32;84.99;98150.16;4970660;28;20089;-84
2022/11/14 07:25:52;;;;;;;19.27;11.00;;;;;;;4.38;84.86;98152.97;4971227;28;20109;-83
2022/11/14 07:28:17;;;;;;;22.35;12.52;;;;;;;4.47;85.02;98144.22;4987028;28;20043;-84
2022/11/14 07:30:43;;;;;;;19.20;11.02;;;;;;;4.59;84.63;98139.53;4971240;28;20066;-84
2022/11/14 07:33:09;;;;;;;20.88;11.88;;;;;;;4.64;84.28;98142.47;4970896;28;20043;-84
2022/11/14 07:35:34;;;;;;;16.70;10.75;;;;;;;4.73;83.72;98161.44;4971137;28;20035;-84
2022/11/14 07:38:02;;;;;;;19.73;11.88;;;;;;;4.68;83.84;98167.16;4966915;28;20058;-84
2022/11/14 07:40:28;;;;;;;22.52;12.45;;;;;;;4.65;84.21;98171.84;4968043;28;20124;-84
2022/11/14 07:43:01;;;;;;;19.27;12.45;;;;;;;4.68;84.02;98171.50;4974198;28;20031;-84
2022/11/14 07:45:28;;;;;;;19.25;10.98;;;;;;;4.74;83.93;98189.91;4971132;28;20494;-83
2022/11/14 07:48:00;;;;;;;17.75;10.70;;;;;;;4.76;83.89;98185.34;4972814;28;20034;-85
2022/11/14 07:50:26;;;;;;;;;;;;;;;4.80;83.22;98191.03;4972657;28;20049;-84
2022/11/14 07:52:54;;;;;;;18.55;10.40;;;;;;;4.89;82.98;98195.25;4969877;28;20008;-84
2022/11/14 07:55:20;;;;;;;19.45;10.02;;;;;;;4.89;82.96;98184.88;4970015;28;20069;-85
2022/11/14 07:57:50;;;;;;;21.42;10.60;;;;;;;5.04;83.04;98188.47;4970930;28;20035;-85
2022/11/14 08:00:16;;;;;;;17.27;11.10;;;;;;;5.10;82.39;98180.00;4976630;28;20038;-84
2022/11/14 08:02:42;;;;;;;20.25;12.13;;;;;;;5.18;82.05;98187.00;4983849;28;20394;-85
2022/11/14 08:05:08;;;;;;;20.23;11.90;;;;;;;5.28;81.88;98184.22;4970266;28;20038;-84
2022/11/14 08:07:33;;;;;;;21.35;13.25;;;;;;;5.40;82.46;98171.69;4970323;28;20046;-85
2022/11/14 08:09:59;;;;;;;18.95;12.27;;;;;;;5.56;82.15;98182.88;4971013;28;20062;-84
2022/11/14 08:12:24;;;;;;;19.92;11.80;;;;;;;5.49;80.91;98166.31;4970407;28;20077;-85
2022/11/14 08:14:50;;;;;;;19.42;11.27;;;;;;;5.68;81.02;98159.94;4970905;28;20113;-84
2022/11/14 08:17:15;;;;;;;19.63;11.38;;;;;;;5.81;80.29;98160.19;4971057;28;20406;-83
2022/11/14 08:19:41;;;;;;;18.75;11.60;;;;;;;5.79;79.92;98150.94;4969176;28;20038;-85
2022/11/14 08:22:07;;;;;;;16.30;9.95;;;;;;;5.88;80.22;98165.59;4970289;28;20074;-85
2022/11/14 08:24:32;;;;;;;18.48;11.30;;;;;;;5.96;79.80;98167.38;4969548;28;20089;-85
2022/11/14 08:26:58;;;;;;;20.15;11.85;;;;;;;6.02;79.97;98164.09;4969775;28;20537;-85
2022/11/14 08:29:23;;;;;;;19.17;11.48;;;;;;;6.11;79.05;98171.69;4971374;28;20039;-84
2022/11/14 08:31:49;;;;;;;19.15;11.80;;;;;;;6.19;78.71;98164.84;4986924;28;20050;-84
2022/11/14 08:34:14;;;;;;;17.92;10.90;;;;;;;6.17;78.95;98157.16;4971130;28;20061;-84
2022/11/14 08:36:40;;;;;;;26.20;14.63;;;;;;;6.43;78.50;98165.53;4983910;28;20059;-85
2022/11/14 08:39:06;;;;;;;20.52;11.98;;;;;;;6.54;78.96;98160.91;4970797;28;20062;-84
2022/11/14 08:43:57;;;;;;;18.73;10.88;;;;;;;6.76;78.63;98149.66;4971053;28;20038;-84
2022/11/14 08:46:22;;;;;;;22.20;11.82;;;;;;;6.89;78.53;98157.72;4971324;28;20043;-84
2022/11/14 08:48:48;;;;;;;15.57;10.88;;;;;;;6.92;77.48;98138.31;4970255;28;20114;-84
2022/11/14 08:51:13;;;;;;;24.15;12.30;;;;;;;7.01;78.21;98154.69;4969813;28;20146;-84
2022/11/14 08:53:39;;;;;;;13.75;9.00;;;;;;;7.01;77.21;98160.72;4985841;28;20548;-84
2022/11/14 08:56:05;;;;;;;17.73;10.63;;;;;;;7.07;77.10;98157.41;4970167;28;20034;-84
2022/11/14 08:58:31;;;;;;;17.77;10.60;;;;;;;7.20;76.57;98156.84;4969464;28;20378;-84
2022/11/14 09:01:06;;;;;;;16.77;10.20;;;;;;;7.37;77.03;98162.69;4969131;28;20065;-84
2022/11/14 09:03:33;;;;;;;17.23;10.23;;;;;;;7.41;76.20;98154.34;4968284;28;20042;-84
2022/11/14 09:05:59;;;;;;;17.75;10.15;;;;;;;7.50;76.52;98160.31;4969446;28;20035;-84
2022/11/14 09:08:25;;;;;;;14.73;9.80;;;;;;;7.56;76.00;98146.56;4971460;28;20711;-84
2022/11/14 09:10:50;;;;;;;15.25;10.05;;;;;;;7.70;74.63;98156.19;4974396;28;20058;-85
2022/11/14 09:13:16;;;;;;;14.60;9.85;;;;;;;7.78;75.13;98156.09;4974474;28;20043;-85
2022/11/14 09:15:42;;;;;;;21.70;11.95;;;;;;;7.92;75.50;98154.47;4974889;28;20398;-84
2022/11/14 09:18:09;;;;;;;16.88;11.30;;;;;;;8.03;74.35;98154.00;4974615;28;20042;-85
2022/11/14 09:20:35;;;;;;;17.90;10.45;;;;;;;8.13;73.96;98151.13;4974486;28;20027;-84
2022/11/14 09:23:02;;;;;;;16.10;10.77;;;;;;;8.18;73.78;98146.16;4973282;28;20035;-85
2022/11/14 09:25:29;;;;;;;18.75;10.55;;;;;;;8.32;74.50;98165.41;4974307;28;20423;-85
2022/11/14 09:27:55;;;;;;;16.00;10.60;;;;;;;8.46;73.91;98156.78;4979843;28;20386;-84
2022/11/14 09:30:21;;;;;;;18.23;10.82;;;;;;;8.47;73.77;98145.31;4973923;28;20046;-83
2022/11/14 09:32:48;;;;;;;16.75;11.13;;;;;;;8.61;73.15;98158.53;4974658;28;20039;-83
2022/11/14 09:35:14;;;;;;;15.55;9.90;;;;;;;8.66;72.75;98156.97;4974312;28;20109;-84
2022/11/14 09:37:40;;;;;;;14.98;10.10;;;;;;;8.61;72.65;98141.03;4975295;28;20063;-84
2022/11/14 09:40:07;;;;;;;16.35;9.82;;;;;;;8.78;73.29;98160.72;4973878;28;20566;-84
2022/11/14 09:43:12;;;;;;;14.68;9.70;;;;;;;8.89;72.74;98163.84;4974344;28;20038;-85
2022/11/14 09:45:49;;;;;;;14.88;10.23;;;;;;;9.07;72.40;98172.06;4974157;28;20042;-84
2022/11/14 09:48:21;;;;;;;17.48;10.35;;;;;;;9.18;72.02;98170.75;4989309;28;20039;-85
2022/11/14 09:51:18;;;;;;;14.93;8.70;;;;;;;9.16;70.64;98176.16;4988687;28;20175;-85
2022/11/14 09:53:58;;;;;;;17.00;9.10;;;;;;;9.22;71.28;98171.97;4968552;28;20042;-85
2022/11/14 09:56:25;;;;;;;15.35;10.43;;;;;;;9.37;71.11;98170.91;4969497;28;20038;-85
2022/11/14 09:58:55;;;;;;;14.82;9.10;;;;;;;9.42;70.04;98159.84;4973380;28;20114;-86
2022/11/14 10:01:44;;;;;;;14.13;9.07;;;;;;;9.39;70.16;98166.25;4965772;28;20056;-85
2022/11/14 10:04:39;;;;;;;12.25;8.88;;;;;;;9.59;70.72;98170.84;4963036;28;20039;-85
2022/11/14 10:07:41;;;;;;;15.63;9.10;;;;;;;9.68;69.94;98164.47;4973144;28;20039;-85
2022/11/14 10:10:25;;;;;;;15.00;9.48;;;;;;;9.86;70.49;98162.16;4972976;28;20038;-84
2022/11/14 10:13:29;;;;;;;13.02;8.63;;;;;;;9.97;69.15;98170.47;4972267;28;20035;-85
2022/11/14 10:16:06;;;;;;;14.43;8.82;;;;;;;10.09;68.21;98161.88;4973370;28;20026;-85
2022/11/14 10:19:02;;;;;;;13.15;8.95;;;;;;;10.22;68.18;98166.34;4976515;28;20049;-85
2022/11/14 10:21:52;;;;;;;13.95;9.23;;;;;;;10.36;69.06;98162.81;4972798;28;20089;-85
2022/11/14 10:25:08;;;;;;;13.00;9.32;;;;;;;10.56;67.91;98160.25;4954355;29;20078;-86
2022/11/14 10:28:15;;;;;;;12.68;8.55;;;;;;;10.70;67.52;98158.47;4950376;28;20501;-85
2022/11/14 10:31:18;;;;;;;14.00;8.57;;;;;;;10.76;67.25;98162.94;4973454;28;20038;-84
2022/11/14 10:34:13;;;;;;;10.57;7.70;;;;;;;10.88;67.33;98176.28;4974811;28;20035;-82
2022/11/14 10:37:08;;;;;;;14.80;8.38;;;;;;;10.91;66.01;98187.16;4989024;28;20057;-83
2022/11/14 10:39:45;;;;;;;12.50;8.10;;;;;;;11.07;65.87;98190.41;4967475;28;20443;-83
2022/11/14 10:42:33;;;;;;;12.27;7.82;;;;;;;11.19;66.95;98183.56;4984199;28;20038;-82
2022/11/14 10:45:14;;;;;;;13.30;8.35;;;;;;;11.31;65.67;98178.53;4970129;28;20558;-83
2022/11/14 10:47:50;;;;;;;12.15;7.47;;;;;;;11.46;66.05;98166.81;4965089;28;20046;-83
2022/11/14 10:50:27;;;;;;;9.93;7.72;;;;;;;11.57;64.97;98164.56;4968380;28;20077;-83
2022/11/14 10:53:03;;;;;;;11.45;7.80;;;;;;;11.65;64.99;98162.53;4969642;28;20035;-83
2022/11/14 10:55:29;;;;;;;9.35;7.15;;;;;;;11.78;64.61;98178.28;4970429;28;20043;-84
2022/11/14 10:57:56;;;;;;;10.93;7.78;;;;;;;11.84;64.48;98174.06;4985701;28;20086;-84
2022/11/14 11:00:23;;;;;;;12.25;8.35;;;;;;;11.94;65.31;98174.44;4970700;28;20419;-83
2022/11/14 11:02:56;;;;;;;11.52;8.15;;;;;;;12.07;64.67;98172.78;4966430;28;20038;-83
2022/11/14 11:05:29;;;;;;;12.95;7.82;;;;;;;12.10;63.55;98175.81;4970360;28;20037;-83
2022/11/14 11:13:35;;;;;;;9.60;7.95;;;;;;;12.12;63.18;98173.00;4970327;28;20038;-83
2022/11/14 11:16:04;;;;;;;10.48;7.82;;;;;;;12.15;62.10;98162.03;4984430;28;20071;-82
2022/11/14 11:18:33;;;;;;;10.95;7.78;;;;;;;12.28;63.31;98161.97;4968760;28;20049;-83
2022/11/14 11:21:09;;;;;;;10.52;7.53;;;;;;;12.32;62.92;98152.66;4970400;28;20133;-83
2022/11/14 11:23:51;;;;;;;12.30;8.07;;;;;;;12.38;62.74;98157.09;4969778;28;20039;-83
2022/11/14 11:26:24;;;;;;;11.38;7.78;;;;;;;12.54;64.28;98151.34;4969180;28;20042;-80
2022/11/14 11:29:19;;;;;;;11.63;9.00;;;;;;;12.62;62.95;98158.19;4969209;28;20034;-82
2022/11/14 11:31:52;;;;;;;11.50;7.72;;;;;;;12.74;61.67;98153.06;4967378;28;20046;-82
2022/11/14 11:34:31;;;;;;;11.55;7.60;;;;;;;12.86;61.56;98159.25;4969047;28;20034;-82
2022/11/14 11:37:30;;;;;;;10.88;7.70;;;;;;;12.80;60.71;98149.59;4969771;28;20132;-83
2022/11/14 11:40:03;;;;;;;11.75;8.00;;;;;;;12.91;62.56;98143.66;4967104;28;20031;-83
2022/11/14 11:42:59;;;;;;;11.00;7.32;;;;;;;13.01;61.34;98145.78;4968624;28;20030;-83
2022/11/14 11:45:27;;;;;;;9.57;6.93;;;;;;;13.24;62.44;98147.88;4966769;28;20529;-83